sensor_id;sensor_type;location;lat;lon;timestamp;P1;durP1;ratioP1;P2;durP2;ratioP2
22219;SDS011;11279;48.364;10.904;2023-07-29T00:00:53;8.57;;;5.25;;
22219;SDS011;11279;48.364;10.904;2023-07-29T00:01:56;8.07;;;5.70;;
22219;SDS011;11279;48.364;10.904;2023-07-29T00:02:56;9.90;;;5.83;;
22219;SDS011;11279;48.364;10.904;2023-07-29T00:03:57;11.03;;;6.20;;
22219;SDS011;11279;48.364;10.904;2023-07-29T00:04:57;9.50;;;6.07;;
22219;SDS011;11279;48.364;10.904;2023-07-29T00:05:57;10.33;;;6.17;;
22219;SDS011;11279;48.364;10.904;2023-07-29T00:06:58;12.37;;;6.27;;
22219;SDS011;11279;48.364;10.904;2023-07-29T00:07:58;11.60;;;6.33;;
22219;SDS011;11279;48.364;10.904;2023-07-29T00:08:59;8.57;;;6.00;;
22219;SDS011;11279;48.364;10.904;2023-07-29T00:09:59;9.27;;;6.13;;
22219;SDS011;11279;48.364;10.904;2023-07-29T00:11:00;9.87;;;5.83;;
22219;SDS011;11279;48.364;10.904;2023-07-29T00:12:00;10.17;;;5.57;;
22219;SDS011;11279;48.364;10.904;2023-07-29T00:13:01;8.00;;;5.60;;
22219;SDS011;11279;48.364;10.904;2023-07-29T00:14:01;10.50;;;6.50;;
22219;SDS011;11279;48.364;10.904;2023-07-29T00:15:02;9.90;;;5.87;;
22219;SDS011;11279;48.364;10.904;2023-07-29T00:16:03;10.97;;;5.90;;
22219;SDS011;11279;48.364;10.904;2023-07-29T00:17:03;12.30;;;6.27;;
22219;SDS011;11279;48.364;10.904;2023-07-29T00:18:04;10.00;;;7.10;;
22219;SDS011;11279;48.364;10.904;2023-07-29T00:19:04;10.43;;;6.27;;
22219;SDS011;11279;48.364;10.904;2023-07-29T00:20:05;10.10;;;6.23;;
22219;SDS011;11279;48.364;10.904;2023-07-29T00:21:06;9.52;;;6.30;;
22219;SDS011;11279;48.364;10.904;2023-07-29T00:22:07;9.15;;;6.38;;
22219;SDS011;11279;48.364;10.904;2023-07-29T00:23:08;9.93;;;6.68;;
22219;SDS011;11279;48.364;10.904;2023-07-29T00:24:09;11.70;;;6.57;;
22219;SDS011;11279;48.364;10.904;2023-07-29T00:25:09;10.90;;;6.60;;
22219;SDS011;11279;48.364;10.904;2023-07-29T00:26:10;10.83;;;6.63;;
22219;SDS011;11279;48.364;10.904;2023-07-29T00:27:10;13.90;;;7.87;;
22219;SDS011;11279;48.364;10.904;2023-07-29T00:28:11;12.33;;;6.23;;
22219;SDS011;11279;48.364;10.904;2023-07-29T00:29:12;9.10;;;5.90;;
22219;SDS011;11279;48.364;10.904;2023-07-29T00:30:12;10.63;;;6.23;;
22219;SDS011;11279;48.364;10.904;2023-07-29T00:31:13;9.53;;;6.07;;
22219;SDS011;11279;48.364;10.904;2023-07-29T00:32:13;12.80;;;5.80;;
22219;SDS011;11279;48.364;10.904;2023-07-29T00:33:14;10.73;;;5.83;;
22219;SDS011;11279;48.364;10.904;2023-07-29T00:34:14;11.37;;;5.70;;
22219;SDS011;11279;48.364;10.904;2023-07-29T00:35:19;10.48;;;6.53;;
22219;SDS011;11279;48.364;10.904;2023-07-29T00:36:20;12.13;;;6.73;;
22219;SDS011;11279;48.364;10.904;2023-07-29T00:37:20;11.13;;;7.10;;
22219;SDS011;11279;48.364;10.904;2023-07-29T00:38:21;11.53;;;6.30;;
22219;SDS011;11279;48.364;10.904;2023-07-29T00:39:21;17.07;;;8.03;;
22219;SDS011;11279;48.364;10.904;2023-07-29T00:40:22;11.65;;;6.75;;
22219;SDS011;11279;48.364;10.904;2023-07-29T00:41:23;11.60;;;6.97;;
22219;SDS011;11279;48.364;10.904;2023-07-29T00:42:24;10.87;;;6.43;;
22219;SDS011;11279;48.364;10.904;2023-07-29T00:43:24;14.33;;;7.63;;
22219;SDS011;11279;48.364;10.904;2023-07-29T00:44:25;13.13;;;7.23;;
22219;SDS011;11279;48.364;10.904;2023-07-29T00:45:25;12.67;;;6.43;;
22219;SDS011;11279;48.364;10.904;2023-07-29T00:46:27;11.43;;;6.00;;
22219;SDS011;11279;48.364;10.904;2023-07-29T00:47:28;11.05;;;6.95;;
22219;SDS011;11279;48.364;10.904;2023-07-29T00:48:28;14.10;;;7.17;;
22219;SDS011;11279;48.364;10.904;2023-07-29T00:49:29;9.70;;;6.80;;
22219;SDS011;11279;48.364;10.904;2023-07-29T00:50:30;15.87;;;6.63;;
22219;SDS011;11279;48.364;10.904;2023-07-29T00:51:31;11.98;;;6.65;;
22219;SDS011;11279;48.364;10.904;2023-07-29T00:52:31;11.97;;;7.83;;
22219;SDS011;11279;48.364;10.904;2023-07-29T00:53:32;13.83;;;7.07;;
22219;SDS011;11279;48.364;10.904;2023-07-29T00:54:32;11.43;;;7.13;;
22219;SDS011;11279;48.364;10.904;2023-07-29T00:55:33;10.57;;;6.70;;
22219;SDS011;11279;48.364;10.904;2023-07-29T00:56:34;15.97;;;8.20;;
22219;SDS011;11279;48.364;10.904;2023-07-29T00:57:35;12.67;;;7.20;;
22219;SDS011;11279;48.364;10.904;2023-07-29T00:58:35;14.67;;;7.20;;
22219;SDS011;11279;48.364;10.904;2023-07-29T00:59:35;12.00;;;6.67;;
22219;SDS011;11279;48.364;10.904;2023-07-29T01:00:36;16.57;;;8.10;;
22219;SDS011;11279;48.364;10.904;2023-07-29T01:01:36;12.40;;;6.97;;
22219;SDS011;11279;48.364;10.904;2023-07-29T01:02:37;16.53;;;9.10;;
22219;SDS011;11279;48.364;10.904;2023-07-29T01:03:37;13.23;;;6.90;;
22219;SDS011;11279;48.364;10.904;2023-07-29T01:04:38;10.70;;;5.77;;
22219;SDS011;11279;48.364;10.904;2023-07-29T01:05:55;14.20;;;7.90;;
22219;SDS011;11279;48.364;10.904;2023-07-29T01:07:19;13.98;;;7.50;;
22219;SDS011;11279;48.364;10.904;2023-07-29T01:08:45;9.90;;;6.10;;
22219;SDS011;11279;48.364;10.904;2023-07-29T01:09:55;15.88;;;8.23;;
22219;SDS011;11279;48.364;10.904;2023-07-29T01:11:03;12.40;;;7.68;;
22219;SDS011;11279;48.364;10.904;2023-07-29T01:13:17;14.65;;;7.60;;
22219;SDS011;11279;48.364;10.904;2023-07-29T01:14:33;13.00;;;7.15;;
22219;SDS011;11279;48.364;10.904;2023-07-29T01:16:55;12.73;;;7.93;;
22219;SDS011;11279;48.364;10.904;2023-07-29T01:17:58;13.55;;;7.78;;
22219;SDS011;11279;48.364;10.904;2023-07-29T01:19:03;11.10;;;7.43;;
22219;SDS011;11279;48.364;10.904;2023-07-29T01:20:07;12.57;;;8.50;;
22219;SDS011;11279;48.364;10.904;2023-07-29T01:21:09;13.13;;;7.90;;
22219;SDS011;11279;48.364;10.904;2023-07-29T01:22:11;11.73;;;7.40;;
22219;SDS011;11279;48.364;10.904;2023-07-29T01:23:12;12.80;;;7.32;;
22219;SDS011;11279;48.364;10.904;2023-07-29T01:24:12;15.23;;;9.03;;
22219;SDS011;11279;48.364;10.904;2023-07-29T01:25:13;11.27;;;7.73;;
22219;SDS011;11279;48.364;10.904;2023-07-29T01:26:13;14.30;;;7.80;;
22219;SDS011;11279;48.364;10.904;2023-07-29T01:27:14;11.17;;;7.07;;
22219;SDS011;11279;48.364;10.904;2023-07-29T01:28:14;12.13;;;8.00;;
22219;SDS011;11279;48.364;10.904;2023-07-29T01:29:15;13.90;;;8.57;;
22219;SDS011;11279;48.364;10.904;2023-07-29T01:30:15;13.70;;;7.27;;
22219;SDS011;11279;48.364;10.904;2023-07-29T01:31:17;13.13;;;7.27;;
22219;SDS011;11279;48.364;10.904;2023-07-29T01:33:56;14.80;;;8.75;;
22219;SDS011;11279;48.364;10.904;2023-07-29T01:36:20;12.70;;;7.78;;
22219;SDS011;11279;48.364;10.904;2023-07-29T01:37:24;10.90;;;6.60;;
22219;SDS011;11279;48.364;10.904;2023-07-29T01:38:32;12.25;;;8.00;;
22219;SDS011;11279;48.364;10.904;2023-07-29T01:39:34;15.13;;;7.68;;
22219;SDS011;11279;48.364;10.904;2023-07-29T01:40:37;14.02;;;8.27;;
22219;SDS011;11279;48.364;10.904;2023-07-29T01:41:37;13.70;;;8.57;;
22219;SDS011;11279;48.364;10.904;2023-07-29T01:42:38;15.93;;;8.77;;
22219;SDS011;11279;48.364;10.904;2023-07-29T01:43:39;14.90;;;8.00;;
22219;SDS011;11279;48.364;10.904;2023-07-29T01:44:43;13.80;;;8.00;;
22219;SDS011;11279;48.364;10.904;2023-07-29T01:45:44;16.33;;;8.30;;
22219;SDS011;11279;48.364;10.904;2023-07-29T01:46:45;16.87;;;8.33;;
22219;SDS011;11279;48.364;10.904;2023-07-29T01:47:45;13.90;;;8.30;;
22219;SDS011;11279;48.364;10.904;2023-07-29T01:48:46;13.87;;;8.10;;
22219;SDS011;11279;48.364;10.904;2023-07-29T01:49:46;15.03;;;8.00;;
22219;SDS011;11279;48.364;10.904;2023-07-29T01:50:46;17.30;;;8.63;;
22219;SDS011;11279;48.364;10.904;2023-07-29T01:51:47;11.63;;;7.93;;
22219;SDS011;11279;48.364;10.904;2023-07-29T01:52:47;16.20;;;9.57;;
22219;SDS011;11279;48.364;10.904;2023-07-29T01:53:48;14.70;;;9.13;;
22219;SDS011;11279;48.364;10.904;2023-07-29T01:54:48;14.67;;;9.40;;
22219;SDS011;11279;48.364;10.904;2023-07-29T01:55:49;14.77;;;8.90;;
22219;SDS011;11279;48.364;10.904;2023-07-29T01:56:49;15.30;;;9.73;;
22219;SDS011;11279;48.364;10.904;2023-07-29T01:57:51;15.45;;;8.30;;
22219;SDS011;11279;48.364;10.904;2023-07-29T01:58:51;25.30;;;11.83;;
22219;SDS011;11279;48.364;10.904;2023-07-29T01:59:52;17.20;;;9.03;;
22219;SDS011;11279;48.364;10.904;2023-07-29T02:00:52;18.53;;;11.10;;
22219;SDS011;11279;48.364;10.904;2023-07-29T02:01:53;16.43;;;9.07;;
22219;SDS011;11279;48.364;10.904;2023-07-29T02:02:53;17.90;;;9.53;;
22219;SDS011;11279;48.364;10.904;2023-07-29T02:03:54;18.10;;;9.77;;
22219;SDS011;11279;48.364;10.904;2023-07-29T02:04:57;18.17;;;9.25;;
22219;SDS011;11279;48.364;10.904;2023-07-29T02:05:58;18.27;;;10.50;;
22219;SDS011;11279;48.364;10.904;2023-07-29T02:06:58;18.93;;;9.63;;
22219;SDS011;11279;48.364;10.904;2023-07-29T02:07:58;16.07;;;8.27;;
22219;SDS011;11279;48.364;10.904;2023-07-29T02:08:59;19.17;;;9.20;;
22219;SDS011;11279;48.364;10.904;2023-07-29T02:09:59;16.87;;;8.97;;
22219;SDS011;11279;48.364;10.904;2023-07-29T02:11:00;19.93;;;10.00;;
22219;SDS011;11279;48.364;10.904;2023-07-29T02:12:00;18.53;;;8.87;;
22219;SDS011;11279;48.364;10.904;2023-07-29T02:13:01;14.13;;;7.67;;
22219;SDS011;11279;48.364;10.904;2023-07-29T02:14:01;19.87;;;9.90;;
22219;SDS011;11279;48.364;10.904;2023-07-29T02:15:02;11.90;;;7.63;;
22219;SDS011;11279;48.364;10.904;2023-07-29T02:16:03;16.75;;;10.00;;
22219;SDS011;11279;48.364;10.904;2023-07-29T02:17:03;14.43;;;8.80;;
22219;SDS011;11279;48.364;10.904;2023-07-29T02:18:04;17.60;;;8.83;;
22219;SDS011;11279;48.364;10.904;2023-07-29T02:19:06;15.02;;;8.25;;
22219;SDS011;11279;48.364;10.904;2023-07-29T02:20:07;13.97;;;7.80;;
22219;SDS011;11279;48.364;10.904;2023-07-29T02:21:07;17.53;;;8.57;;
22219;SDS011;11279;48.364;10.904;2023-07-29T02:22:09;15.63;;;8.63;;
22219;SDS011;11279;48.364;10.904;2023-07-29T02:23:12;20.20;;;10.10;;
22219;SDS011;11279;48.364;10.904;2023-07-29T02:24:13;14.27;;;8.20;;
22219;SDS011;11279;48.364;10.904;2023-07-29T02:25:13;18.57;;;10.50;;
22219;SDS011;11279;48.364;10.904;2023-07-29T02:26:14;12.67;;;8.23;;
22219;SDS011;11279;48.364;10.904;2023-07-29T02:27:14;14.90;;;8.07;;
22219;SDS011;11279;48.364;10.904;2023-07-29T02:28:15;18.37;;;9.67;;
22219;SDS011;11279;48.364;10.904;2023-07-29T02:29:15;15.53;;;6.70;;
22219;SDS011;11279;48.364;10.904;2023-07-29T02:30:16;14.40;;;8.10;;
22219;SDS011;11279;48.364;10.904;2023-07-29T02:31:17;12.70;;;7.10;;
22219;SDS011;11279;48.364;10.904;2023-07-29T02:32:20;13.68;;;7.47;;
22219;SDS011;11279;48.364;10.904;2023-07-29T02:33:21;14.80;;;8.03;;
22219;SDS011;11279;48.364;10.904;2023-07-29T02:34:21;12.70;;;7.40;;
22219;SDS011;11279;48.364;10.904;2023-07-29T02:35:22;13.50;;;7.77;;
22219;SDS011;11279;48.364;10.904;2023-07-29T02:36:22;13.77;;;7.53;;
22219;SDS011;11279;48.364;10.904;2023-07-29T02:37:22;13.37;;;7.37;;
22219;SDS011;11279;48.364;10.904;2023-07-29T02:38:23;18.13;;;8.60;;
22219;SDS011;11279;48.364;10.904;2023-07-29T02:39:23;20.43;;;9.73;;
22219;SDS011;11279;48.364;10.904;2023-07-29T02:40:24;20.97;;;9.83;;
22219;SDS011;11279;48.364;10.904;2023-07-29T02:41:26;14.48;;;7.40;;
22219;SDS011;11279;48.364;10.904;2023-07-29T02:42:27;10.87;;;6.80;;
22219;SDS011;11279;48.364;10.904;2023-07-29T02:43:27;21.57;;;8.27;;
22219;SDS011;11279;48.364;10.904;2023-07-29T02:44:28;11.67;;;7.07;;
22219;SDS011;11279;48.364;10.904;2023-07-29T02:45:28;11.50;;;6.43;;
22219;SDS011;11279;48.364;10.904;2023-07-29T02:46:29;11.20;;;6.90;;
22219;SDS011;11279;48.364;10.904;2023-07-29T02:47:29;15.93;;;6.93;;
22219;SDS011;11279;48.364;10.904;2023-07-29T02:48:30;14.33;;;7.77;;
22219;SDS011;11279;48.364;10.904;2023-07-29T02:49:30;17.33;;;8.73;;
22219;SDS011;11279;48.364;10.904;2023-07-29T02:50:30;13.37;;;7.00;;
22219;SDS011;11279;48.364;10.904;2023-07-29T02:51:31;18.60;;;9.53;;
22219;SDS011;11279;48.364;10.904;2023-07-29T02:52:31;12.77;;;6.83;;
22219;SDS011;11279;48.364;10.904;2023-07-29T02:53:32;16.20;;;7.07;;
22219;SDS011;11279;48.364;10.904;2023-07-29T02:54:32;15.37;;;7.37;;
22219;SDS011;11279;48.364;10.904;2023-07-29T02:55:33;15.77;;;7.90;;
22219;SDS011;11279;48.364;10.904;2023-07-29T02:56:33;13.23;;;6.77;;
22219;SDS011;11279;48.364;10.904;2023-07-29T02:57:33;10.63;;;7.47;;
22219;SDS011;11279;48.364;10.904;2023-07-29T02:58:34;14.23;;;7.40;;
22219;SDS011;11279;48.364;10.904;2023-07-29T02:59:35;14.30;;;7.90;;
22219;SDS011;11279;48.364;10.904;2023-07-29T03:00:35;14.23;;;7.10;;
22219;SDS011;11279;48.364;10.904;2023-07-29T03:01:35;15.23;;;7.27;;
22219;SDS011;11279;48.364;10.904;2023-07-29T03:02:36;14.80;;;7.13;;
22219;SDS011;11279;48.364;10.904;2023-07-29T03:03:36;18.07;;;8.07;;
22219;SDS011;11279;48.364;10.904;2023-07-29T03:04:37;15.07;;;7.60;;
22219;SDS011;11279;48.364;10.904;2023-07-29T03:05:37;15.47;;;6.87;;
22219;SDS011;11279;48.364;10.904;2023-07-29T03:06:38;16.80;;;7.13;;
22219;SDS011;11279;48.364;10.904;2023-07-29T03:07:38;17.73;;;8.53;;
22219;SDS011;11279;48.364;10.904;2023-07-29T03:08:39;16.60;;;7.43;;
22219;SDS011;11279;48.364;10.904;2023-07-29T03:09:39;18.67;;;7.00;;
22219;SDS011;11279;48.364;10.904;2023-07-29T03:10:41;20.10;;;7.63;;
22219;SDS011;11279;48.364;10.904;2023-07-29T03:11:42;15.68;;;7.80;;
22219;SDS011;11279;48.364;10.904;2023-07-29T03:12:43;10.87;;;5.97;;
22219;SDS011;11279;48.364;10.904;2023-07-29T03:13:43;12.27;;;6.90;;
22219;SDS011;11279;48.364;10.904;2023-07-29T03:14:47;14.27;;;6.87;;
22219;SDS011;11279;48.364;10.904;2023-07-29T03:15:48;11.82;;;6.45;;
22219;SDS011;11279;48.364;10.904;2023-07-29T03:16:49;11.30;;;6.40;;
22219;SDS011;11279;48.364;10.904;2023-07-29T03:17:49;16.97;;;7.67;;
22219;SDS011;11279;48.364;10.904;2023-07-29T03:18:49;14.40;;;7.13;;
22219;SDS011;11279;48.364;10.904;2023-07-29T03:19:50;14.93;;;6.83;;
22219;SDS011;11279;48.364;10.904;2023-07-29T03:20:50;12.67;;;6.13;;
22219;SDS011;11279;48.364;10.904;2023-07-29T03:21:51;10.93;;;6.07;;
22219;SDS011;11279;48.364;10.904;2023-07-29T03:22:51;13.33;;;6.33;;
22219;SDS011;11279;48.364;10.904;2023-07-29T03:23:52;13.50;;;6.10;;
22219;SDS011;11279;48.364;10.904;2023-07-29T03:24:52;11.70;;;6.37;;
22219;SDS011;11279;48.364;10.904;2023-07-29T03:25:54;14.27;;;7.13;;
22219;SDS011;11279;48.364;10.904;2023-07-29T03:26:56;12.43;;;6.22;;
22219;SDS011;11279;48.364;10.904;2023-07-29T03:27:57;12.80;;;6.13;;
22219;SDS011;11279;48.364;10.904;2023-07-29T03:28:57;11.90;;;6.17;;
22219;SDS011;11279;48.364;10.904;2023-07-29T03:29:58;9.10;;;5.93;;
22219;SDS011;11279;48.364;10.904;2023-07-29T03:30:59;10.97;;;6.30;;
22219;SDS011;11279;48.364;10.904;2023-07-29T03:31:59;12.93;;;5.90;;
22219;SDS011;11279;48.364;10.904;2023-07-29T03:32:59;15.13;;;6.93;;
22219;SDS011;11279;48.364;10.904;2023-07-29T03:34:00;14.93;;;6.60;;
22219;SDS011;11279;48.364;10.904;2023-07-29T03:35:00;12.60;;;5.67;;
22219;SDS011;11279;48.364;10.904;2023-07-29T03:36:01;11.17;;;6.47;;
22219;SDS011;11279;48.364;10.904;2023-07-29T03:37:01;8.90;;;5.23;;
22219;SDS011;11279;48.364;10.904;2023-07-29T03:38:02;11.20;;;5.73;;
22219;SDS011;11279;48.364;10.904;2023-07-29T03:39:02;14.77;;;6.50;;
22219;SDS011;11279;48.364;10.904;2023-07-29T03:40:04;9.60;;;5.75;;
22219;SDS011;11279;48.364;10.904;2023-07-29T03:41:06;13.02;;;6.53;;
22219;SDS011;11279;48.364;10.904;2023-07-29T03:42:08;11.60;;;5.88;;
22219;SDS011;11279;48.364;10.904;2023-07-29T03:43:09;12.00;;;6.00;;
22219;SDS011;11279;48.364;10.904;2023-07-29T03:44:09;12.37;;;6.60;;
22219;SDS011;11279;48.364;10.904;2023-07-29T03:45:09;11.43;;;5.97;;
22219;SDS011;11279;48.364;10.904;2023-07-29T03:46:10;14.93;;;6.90;;
22219;SDS011;11279;48.364;10.904;2023-07-29T03:47:10;15.60;;;6.53;;
22219;SDS011;11279;48.364;10.904;2023-07-29T03:48:11;14.83;;;6.17;;
22219;SDS011;11279;48.364;10.904;2023-07-29T03:49:11;11.40;;;5.83;;
22219;SDS011;11279;48.364;10.904;2023-07-29T03:50:12;17.00;;;6.80;;
22219;SDS011;11279;48.364;10.904;2023-07-29T03:51:12;12.43;;;6.27;;
22219;SDS011;11279;48.364;10.904;2023-07-29T03:52:12;14.07;;;5.90;;
22219;SDS011;11279;48.364;10.904;2023-07-29T03:53:13;13.83;;;5.87;;
22219;SDS011;11279;48.364;10.904;2023-07-29T03:54:13;14.47;;;6.30;;
22219;SDS011;11279;48.364;10.904;2023-07-29T03:55:14;15.10;;;5.93;;
22219;SDS011;11279;48.364;10.904;2023-07-29T03:56:14;15.57;;;6.80;;
22219;SDS011;11279;48.364;10.904;2023-07-29T03:57:15;16.43;;;6.73;;
22219;SDS011;11279;48.364;10.904;2023-07-29T03:58:15;12.03;;;6.07;;
22219;SDS011;11279;48.364;10.904;2023-07-29T03:59:16;14.63;;;6.07;;
22219;SDS011;11279;48.364;10.904;2023-07-29T04:00:17;11.52;;;6.72;;
22219;SDS011;11279;48.364;10.904;2023-07-29T04:01:17;14.63;;;6.13;;
22219;SDS011;11279;48.364;10.904;2023-07-29T04:02:18;18.03;;;7.53;;
22219;SDS011;11279;48.364;10.904;2023-07-29T04:03:18;13.50;;;6.77;;
22219;SDS011;11279;48.364;10.904;2023-07-29T04:04:19;11.73;;;6.77;;
22219;SDS011;11279;48.364;10.904;2023-07-29T04:05:19;14.07;;;6.43;;
22219;SDS011;11279;48.364;10.904;2023-07-29T04:06:20;12.37;;;6.20;;
22219;SDS011;11279;48.364;10.904;2023-07-29T04:07:20;12.13;;;6.07;;
22219;SDS011;11279;48.364;10.904;2023-07-29T04:08:21;12.77;;;6.93;;
22219;SDS011;11279;48.364;10.904;2023-07-29T04:09:21;12.70;;;6.03;;
22219;SDS011;11279;48.364;10.904;2023-07-29T04:10:22;12.40;;;7.07;;
22219;SDS011;11279;48.364;10.904;2023-07-29T04:11:23;13.45;;;6.35;;
22219;SDS011;11279;48.364;10.904;2023-07-29T04:12:24;16.87;;;6.47;;
22219;SDS011;11279;48.364;10.904;2023-07-29T04:13:24;12.03;;;5.70;;
22219;SDS011;11279;48.364;10.904;2023-07-29T04:14:25;11.93;;;6.30;;
22219;SDS011;11279;48.364;10.904;2023-07-29T04:15:25;14.13;;;6.73;;
22219;SDS011;11279;48.364;10.904;2023-07-29T04:16:26;13.23;;;6.57;;
22219;SDS011;11279;48.364;10.904;2023-07-29T04:17:26;15.13;;;7.03;;
22219;SDS011;11279;48.364;10.904;2023-07-29T04:18:27;12.07;;;6.50;;
22219;SDS011;11279;48.364;10.904;2023-07-29T04:19:27;15.13;;;5.77;;
22219;SDS011;11279;48.364;10.904;2023-07-29T04:20:27;15.03;;;7.10;;
22219;SDS011;11279;48.364;10.904;2023-07-29T04:21:29;10.05;;;5.85;;
22219;SDS011;11279;48.364;10.904;2023-07-29T04:22:29;14.43;;;6.50;;
22219;SDS011;11279;48.364;10.904;2023-07-29T04:23:30;16.33;;;6.43;;
22219;SDS011;11279;48.364;10.904;2023-07-29T04:24:30;13.00;;;6.33;;
22219;SDS011;11279;48.364;10.904;2023-07-29T04:25:30;15.67;;;5.73;;
22219;SDS011;11279;48.364;10.904;2023-07-29T04:26:31;13.33;;;6.43;;
22219;SDS011;11279;48.364;10.904;2023-07-29T04:27:31;13.33;;;5.83;;
22219;SDS011;11279;48.364;10.904;2023-07-29T04:28:32;11.97;;;5.60;;
22219;SDS011;11279;48.364;10.904;2023-07-29T04:29:32;11.90;;;5.73;;
22219;SDS011;11279;48.364;10.904;2023-07-29T04:30:33;13.07;;;6.07;;
22219;SDS011;11279;48.364;10.904;2023-07-29T04:31:33;9.63;;;5.47;;
22219;SDS011;11279;48.364;10.904;2023-07-29T04:32:33;9.57;;;5.67;;
22219;SDS011;11279;48.364;10.904;2023-07-29T04:33:34;11.47;;;6.13;;
22219;SDS011;11279;48.364;10.904;2023-07-29T04:34:34;10.67;;;5.47;;
22219;SDS011;11279;48.364;10.904;2023-07-29T04:35:35;11.80;;;4.87;;
22219;SDS011;11279;48.364;10.904;2023-07-29T04:36:35;12.67;;;5.27;;
22219;SDS011;11279;48.364;10.904;2023-07-29T04:37:36;12.97;;;5.73;;
22219;SDS011;11279;48.364;10.904;2023-07-29T04:38:36;14.33;;;5.43;;
22219;SDS011;11279;48.364;10.904;2023-07-29T04:39:37;11.33;;;5.80;;
22219;SDS011;11279;48.364;10.904;2023-07-29T04:40:37;9.43;;;5.30;;
22219;SDS011;11279;48.364;10.904;2023-07-29T04:41:38;7.77;;;4.93;;
22219;SDS011;11279;48.364;10.904;2023-07-29T04:42:38;9.77;;;5.20;;
22219;SDS011;11279;48.364;10.904;2023-07-29T04:43:39;14.27;;;6.10;;
22219;SDS011;11279;48.364;10.904;2023-07-29T04:44:39;13.60;;;5.33;;
22219;SDS011;11279;48.364;10.904;2023-07-29T04:45:42;10.02;;;5.32;;
22219;SDS011;11279;48.364;10.904;2023-07-29T04:46:46;12.20;;;4.93;;
22219;SDS011;11279;48.364;10.904;2023-07-29T04:47:46;7.07;;;4.80;;
22219;SDS011;11279;48.364;10.904;2023-07-29T04:48:46;11.87;;;5.40;;
22219;SDS011;11279;48.364;10.904;2023-07-29T04:49:47;10.30;;;5.20;;
22219;SDS011;11279;48.364;10.904;2023-07-29T04:50:47;7.07;;;4.60;;
22219;SDS011;11279;48.364;10.904;2023-07-29T04:51:48;8.80;;;5.10;;
22219;SDS011;11279;48.364;10.904;2023-07-29T04:52:48;9.37;;;4.83;;
22219;SDS011;11279;48.364;10.904;2023-07-29T04:53:48;8.53;;;5.37;;
22219;SDS011;11279;48.364;10.904;2023-07-29T04:54:49;11.07;;;5.27;;
22219;SDS011;11279;48.364;10.904;2023-07-29T04:55:49;7.10;;;4.83;;
22219;SDS011;11279;48.364;10.904;2023-07-29T04:56:50;9.50;;;5.07;;
22219;SDS011;11279;48.364;10.904;2023-07-29T04:57:50;10.83;;;4.87;;
22219;SDS011;11279;48.364;10.904;2023-07-29T04:58:51;9.80;;;4.60;;
22219;SDS011;11279;48.364;10.904;2023-07-29T04:59:51;13.87;;;4.57;;
22219;SDS011;11279;48.364;10.904;2023-07-29T05:00:52;11.43;;;4.47;;
22219;SDS011;11279;48.364;10.904;2023-07-29T05:01:52;7.73;;;4.50;;
22219;SDS011;11279;48.364;10.904;2023-07-29T05:02:52;8.43;;;4.50;;
22219;SDS011;11279;48.364;10.904;2023-07-29T05:03:53;8.30;;;4.43;;
22219;SDS011;11279;48.364;10.904;2023-07-29T05:04:53;7.50;;;4.07;;
22219;SDS011;11279;48.364;10.904;2023-07-29T05:05:54;7.93;;;4.57;;
22219;SDS011;11279;48.364;10.904;2023-07-29T05:06:55;6.47;;;4.35;;
22219;SDS011;11279;48.364;10.904;2023-07-29T05:07:56;5.63;;;3.80;;
22219;SDS011;11279;48.364;10.904;2023-07-29T05:08:59;7.33;;;4.30;;
22219;SDS011;11279;48.364;10.904;2023-07-29T05:10:12;10.32;;;4.35;;
22219;SDS011;11279;48.364;10.904;2023-07-29T05:11:13;8.00;;;4.20;;
22219;SDS011;11279;48.364;10.904;2023-07-29T05:12:14;10.43;;;4.88;;
22219;SDS011;11279;48.364;10.904;2023-07-29T05:13:14;10.67;;;4.03;;
22219;SDS011;11279;48.364;10.904;2023-07-29T05:14:15;10.13;;;3.83;;
22219;SDS011;11279;48.364;10.904;2023-07-29T05:15:16;8.27;;;4.10;;
22219;SDS011;11279;48.364;10.904;2023-07-29T05:16:18;10.73;;;4.38;;
22219;SDS011;11279;48.364;10.904;2023-07-29T05:17:19;6.63;;;3.70;;
22219;SDS011;11279;48.364;10.904;2023-07-29T05:18:19;7.50;;;3.93;;
22219;SDS011;11279;48.364;10.904;2023-07-29T05:19:20;16.60;;;4.17;;
22219;SDS011;11279;48.364;10.904;2023-07-29T05:20:20;7.77;;;4.30;;
22219;SDS011;11279;48.364;10.904;2023-07-29T05:21:21;7.30;;;4.00;;
22219;SDS011;11279;48.364;10.904;2023-07-29T05:22:21;11.03;;;4.20;;
22219;SDS011;11279;48.364;10.904;2023-07-29T05:23:22;7.00;;;3.70;;
22219;SDS011;11279;48.364;10.904;2023-07-29T05:24:22;9.93;;;3.80;;
22219;SDS011;11279;48.364;10.904;2023-07-29T05:25:23;8.38;;;3.58;;
22219;SDS011;11279;48.364;10.904;2023-07-29T05:26:23;10.33;;;4.03;;
22219;SDS011;11279;48.364;10.904;2023-07-29T05:27:24;11.37;;;4.37;;
22219;SDS011;11279;48.364;10.904;2023-07-29T05:28:24;6.93;;;3.67;;
22219;SDS011;11279;48.364;10.904;2023-07-29T05:29:25;9.07;;;4.37;;
22219;SDS011;11279;48.364;10.904;2023-07-29T05:30:25;7.20;;;3.77;;
22219;SDS011;11279;48.364;10.904;2023-07-29T05:31:27;9.35;;;4.00;;
22219;SDS011;11279;48.364;10.904;2023-07-29T05:32:28;7.10;;;3.50;;
22219;SDS011;11279;48.364;10.904;2023-07-29T05:33:29;6.07;;;3.90;;
22219;SDS011;11279;48.364;10.904;2023-07-29T05:34:30;7.87;;;3.80;;
22219;SDS011;11279;48.364;10.904;2023-07-29T05:35:30;11.90;;;3.80;;
22219;SDS011;11279;48.364;10.904;2023-07-29T05:36:31;6.77;;;4.03;;
22219;SDS011;11279;48.364;10.904;2023-07-29T05:37:31;6.57;;;3.60;;
22219;SDS011;11279;48.364;10.904;2023-07-29T05:38:31;6.53;;;3.80;;
22219;SDS011;11279;48.364;10.904;2023-07-29T05:39:32;6.53;;;3.97;;
22219;SDS011;11279;48.364;10.904;2023-07-29T05:40:33;9.48;;;3.80;;
22219;SDS011;11279;48.364;10.904;2023-07-29T05:41:34;10.57;;;4.33;;
22219;SDS011;11279;48.364;10.904;2023-07-29T05:42:34;8.30;;;3.93;;
22219;SDS011;11279;48.364;10.904;2023-07-29T05:43:35;6.47;;;3.93;;
22219;SDS011;11279;48.364;10.904;2023-07-29T05:44:35;8.13;;;4.00;;
22219;SDS011;11279;48.364;10.904;2023-07-29T05:45:36;7.47;;;3.60;;
22219;SDS011;11279;48.364;10.904;2023-07-29T05:46:36;6.80;;;3.90;;
22219;SDS011;11279;48.364;10.904;2023-07-29T05:47:37;8.40;;;3.60;;
22219;SDS011;11279;48.364;10.904;2023-07-29T05:48:37;6.87;;;3.47;;
22219;SDS011;11279;48.364;10.904;2023-07-29T05:49:38;8.10;;;3.60;;
22219;SDS011;11279;48.364;10.904;2023-07-29T05:50:38;8.10;;;3.27;;
22219;SDS011;11279;48.364;10.904;2023-07-29T05:51:39;6.40;;;3.80;;
22219;SDS011;11279;48.364;10.904;2023-07-29T05:52:39;7.57;;;3.63;;
22219;SDS011;11279;48.364;10.904;2023-07-29T05:53:39;5.40;;;3.27;;
22219;SDS011;11279;48.364;10.904;2023-07-29T05:54:40;8.10;;;4.00;;
22219;SDS011;11279;48.364;10.904;2023-07-29T05:55:42;8.35;;;3.38;;
22219;SDS011;11279;48.364;10.904;2023-07-29T05:56:43;7.83;;;3.57;;
22219;SDS011;11279;48.364;10.904;2023-07-29T05:57:43;6.60;;;3.53;;
22219;SDS011;11279;48.364;10.904;2023-07-29T05:58:44;7.77;;;3.33;;
22219;SDS011;11279;48.364;10.904;2023-07-29T05:59:44;5.30;;;3.50;;
22219;SDS011;11279;48.364;10.904;2023-07-29T06:00:44;6.50;;;3.87;;
22219;SDS011;11279;48.364;10.904;2023-07-29T06:01:45;6.47;;;3.37;;
22219;SDS011;11279;48.364;10.904;2023-07-29T06:02:45;7.43;;;3.80;;
22219;SDS011;11279;48.364;10.904;2023-07-29T06:03:46;10.70;;;3.83;;